Time;durP1;ratioP1;P1;durP2;ratioP2;P2;SDS_P1;SDS_P2;PMS_P1;PMS_P2;Temp;Humidity;BMP_temperature;BMP_pressure;BME280_temperature;BME280_humidity;BME280_pressure;Samples;Min_cycle;Max_cycle;Signal;HPM_P1;HPM_P2
2022/03/01 00:00:13;;;;;;;4.28;1.40;;;;;;;;;;5074137;28;20031;-39
2022/03/01 00:02:39;;;;;;;2.25;0.90;;;;;;;;;;5072708;28;20038;-39
2022/03/01 00:05:05;;;;;;;1.90;1.10;;;;;;;;;;5074143;28;20095;-39
2022/03/01 00:07:30;;;;;;;3.65;1.33;;;;;;;;;;5074115;28;20029;-39
2022/03/01 00:09:56;;;;;;;1.30;1.20;;;;;;;;;;5073971;28;20024;-39
2022/03/01 00:12:21;;;;;;;4.78;1.52;;;;;;;;;;5073891;28;20465;-39
2022/03/01 00:14:47;;;;;;;4.45;1.20;;;;;;;;;;5073246;28;20017;-39
2022/03/01 00:17:12;;;;;;;4.47;1.83;;;;;;;;;;5073502;28;20044;-39
2022/03/01 00:19:37;;;;;;;4.18;1.42;;;;;;;;;;5073957;28;20028;-39
2022/03/01 00:22:03;;;;;;;3.08;1.73;;;;;;;;;;5073720;28;20766;-39
2022/03/01 00:24:28;;;;;;;2.33;1.38;;;;;;;;;;5073626;28;20039;-39
2022/03/01 00:26:53;;;;;;;3.17;1.52;;;;;;;;;;5073472;28;20054;-39
2022/03/01 00:29:19;;;;;;;2.75;1.60;;;;;;;;;;5072189;28;20086;-39
2022/03/01 00:31:44;;;;;;;2.83;2.03;;;;;;;;;;5073429;28;20078;-40
2022/03/01 00:34:10;;;;;;;3.13;1.42;;;;;;;;;;5073313;28;20044;-39
2022/03/01 00:36:36;;;;;;;4.00;1.77;;;;;;;;;;5073571;28;20059;-39
2022/03/01 00:39:06;;;;;;;1.25;1.15;;;;;;;;;;5073299;28;20019;-39
2022/03/01 00:41:31;;;;;;;2.95;1.45;;;;;;;;;;5073317;28;20459;-39
2022/03/01 00:43:56;;;;;;;3.72;1.85;;;;;;;;;;5073084;28;20069;-39
2022/03/01 00:46:26;;;;;;;4.10;1.98;;;;;;;;;;5073210;28;20119;-39
2022/03/01 00:48:55;;;;;;;2.00;1.45;;;;;;;;;;5073107;28;20421;-39
2022/03/01 00:51:20;;;;;;;1.83;1.23;;;;;;;;;;5072950;28;20394;-39
2022/03/01 00:53:46;;;;;;;1.30;1.02;;;;;;;;;;5073285;28;20024;-39
2022/03/01 00:56:11;;;;;;;2.50;1.23;;;;;;;;;;5072863;28;20036;-39
2022/03/01 00:58:37;;;;;;;2.40;1.33;;;;;;;;;;5072928;28;20025;-40
2022/03/01 01:01:02;;;;;;;4.15;1.25;;;;;;;;;;5072828;28;20032;-40
2022/03/01 01:03:28;;;;;;;4.18;1.65;;;;;;;;;;5072868;28;20423;-39
2022/03/01 01:05:53;;;;;;;2.33;1.25;;;;;;;;;;5072564;28;20532;-39
2022/03/01 01:08:19;;;;;;;3.17;1.88;;;;;;;;;;5073069;28;20111;-39
2022/03/01 01:10:44;;;;;;;2.53;1.60;;;;;;;;;;5072596;28;20625;-39
2022/03/01 01:13:12;;;;;;;5.47;2.85;;;;;;;;;;5072540;28;20020;-39
2022/03/01 01:15:37;;;;;;;2.53;1.73;;;;;;;;;;5072636;28;20082;-39
2022/03/01 01:18:03;;;;;;;3.90;1.80;;;;;;;;;;5072494;28;20374;-39
2022/03/01 01:20:28;;;;;;;2.05;1.33;;;;;;;;;;5072751;28;20116;-39
2022/03/01 01:22:54;;;;;;;1.60;1.48;;;;;;;;;;5072271;28;20463;-39
2022/03/01 01:25:21;;;;;;;5.72;1.48;;;;;;;;;;5072542;28;20033;-39
2022/03/01 01:27:49;;;;;;;1.95;1.40;;;;;;;;;;5071831;28;20103;-39
2022/03/01 01:30:16;;;;;;;2.67;1.40;;;;;;;;;;5072128;28;20036;-39
2022/03/01 01:32:42;;;;;;;2.00;1.30;;;;;;;;;;5072063;28;20223;-39
2022/03/01 01:35:09;;;;;;;3.05;1.30;;;;;;;;;;5072291;28;20017;-39
2022/03/01 01:37:34;;;;;;;3.13;1.92;;;;;;;;;;5072173;28;20483;-39
2022/03/01 01:40:00;;;;;;;2.72;1.50;;;;;;;;;;5072027;28;20036;-39
2022/03/01 01:42:25;;;;;;;2.75;1.40;;;;;;;;;;5072140;28;20025;-39
2022/03/01 01:44:51;;;;;;;2.35;1.45;;;;;;;;;;5072207;28;20028;-39
2022/03/01 01:47:16;;;;;;;2.22;1.27;;;;;;;;;;5072182;28;20477;-39
2022/03/01 01:49:42;;;;;;;2.70;1.52;;;;;;;;;;5072156;28;20047;-39
2022/03/01 01:52:07;;;;;;;3.90;1.90;;;;;;;;;;5071717;28;20032;-39
2022/03/01 01:54:33;;;;;;;1.65;1.42;;;;;;;;;;5071959;28;20028;-39
2022/03/01 01:56:59;;;;;;;2.47;1.10;;;;;;;;;;5070508;28;20024;-39
2022/03/01 01:59:24;;;;;;;1.83;1.15;;;;;;;;;;5071718;28;20074;-39
2022/03/01 02:01:49;;;;;;;2.38;1.60;;;;;;;;;;5071976;28;20411;-39
2022/03/01 02:04:15;;;;;;;2.65;1.40;;;;;;;;;;5071649;28;20115;-39
2022/03/01 02:06:53;;;;;;;1.60;1.15;;;;;;;;;;5071911;28;20024;-39
2022/03/01 02:09:19;;;;;;;2.42;1.42;;;;;;;;;;5071543;28;20028;-40
2022/03/01 02:11:45;;;;;;;3.40;1.77;;;;;;;;;;5071521;28;20165;-39
2022/03/01 02:14:10;;;;;;;2.47;1.38;;;;;;;;;;5071797;28;20370;-39
2022/03/01 02:16:36;;;;;;;3.10;1.70;;;;;;;;;;5071465;28;20117;-39
2022/03/01 02:19:03;;;;;;;2.83;1.67;;;;;;;;;;5071682;28;20039;-39
2022/03/01 02:21:29;;;;;;;3.55;1.55;;;;;;;;;;5071760;28;20100;-39
2022/03/01 02:23:54;;;;;;;1.27;1.17;;;;;;;;;;5071138;28;20147;-39
2022/03/01 02:26:20;;;;;;;2.28;1.58;;;;;;;;;;5071489;28;20024;-39
2022/03/01 02:28:45;;;;;;;2.83;1.77;;;;;;;;;;5071720;28;20035;-39
2022/03/01 02:31:10;;;;;;;3.65;1.92;;;;;;;;;;5070161;28;20036;-39
2022/03/01 02:33:36;;;;;;;10.02;2.35;;;;;;;;;;5071267;28;20056;-39
2022/03/01 02:36:02;;;;;;;6.20;2.10;;;;;;;;;;5071125;28;20115;-39
2022/03/01 02:38:28;;;;;;;1.42;1.33;;;;;;;;;;5071298;28;20024;-39
2022/03/01 02:40:53;;;;;;;4.50;1.77;;;;;;;;;;5071499;28;20032;-39
2022/03/01 02:43:18;;;;;;;1.95;1.65;;;;;;;;;;5071453;28;20379;-39
2022/03/01 02:45:44;;;;;;;2.17;1.50;;;;;;;;;;5071240;28;20020;-39
2022/03/01 02:48:09;;;;;;;2.13;1.40;;;;;;;;;;5071322;28;20047;-39
2022/03/01 02:50:34;;;;;;;1.80;1.48;;;;;;;;;;5070141;28;20032;-39
2022/03/01 02:53:00;;;;;;;3.40;2.38;;;;;;;;;;5071080;28;20069;-39
2022/03/01 02:55:25;;;;;;;4.07;1.55;;;;;;;;;;5071384;28;20060;-39
2022/03/01 02:57:51;;;;;;;3.15;1.92;;;;;;;;;;5071074;28;20048;-39
2022/03/01 03:00:16;;;;;;;2.63;1.67;;;;;;;;;;5071098;28;20548;-39
2022/03/01 03:02:42;;;;;;;6.03;1.30;;;;;;;;;;5071270;28;20028;-39
2022/03/01 03:05:08;;;;;;;1.63;1.35;;;;;;;;;;5069660;28;20025;-39
2022/03/01 03:07:34;;;;;;;2.17;1.70;;;;;;;;;;5071263;28;20050;-39
2022/03/01 03:09:59;;;;;;;2.53;1.50;;;;;;;;;;5071119;28;20016;-39
2022/03/01 03:12:25;;;;;;;2.63;1.40;;;;;;;;;;5071252;28;20033;-39
2022/03/01 03:14:50;;;;;;;4.68;1.83;;;;;;;;;;5070792;28;20800;-39
2022/03/01 03:17:15;;;;;;;1.05;0.95;;;;;;;;;;5070842;28;20028;-39
2022/03/01 03:19:41;;;;;;;4.13;1.70;;;;;;;;;;5070792;28;20020;-38
2022/03/01 03:22:06;;;;;;;1.88;0.95;;;;;;;;;;5070783;28;20032;-39
2022/03/01 03:24:32;;;;;;;3.92;1.58;;;;;;;;;;5069481;28;20040;-39
2022/03/01 03:26:57;;;;;;;1.92;1.23;;;;;;;;;;5070704;28;20031;-39
2022/03/01 03:29:23;;;;;;;1.67;1.42;;;;;;;;;;5070793;28;20471;-39
2022/03/01 03:31:48;;;;;;;2.60;1.65;;;;;;;;;;5070751;28;20049;-39
2022/03/01 03:34:13;;;;;;;2.25;1.63;;;;;;;;;;5070806;28;20085;-39
2022/03/01 03:36:40;;;;;;;3.17;1.60;;;;;;;;;;5070755;28;20620;-39
2022/03/01 03:39:06;;;;;;;2.35;1.65;;;;;;;;;;5069176;28;20021;-39
2022/03/01 03:41:32;;;;;;;1.80;1.63;;;;;;;;;;5070592;28;20085;-39
2022/03/01 03:43:59;;;;;;;4.05;1.90;;;;;;;;;;5070602;28;20112;-39
2022/03/01 03:46:25;;;;;;;3.58;1.92;;;;;;;;;;5070589;28;20035;-39
2022/03/01 03:48:52;;;;;;;1.48;1.17;;;;;;;;;;5070571;28;20017;-39
2022/03/01 03:51:18;;;;;;;2.55;1.30;;;;;;;;;;5072803;28;20124;-39
2022/03/01 03:53:43;;;;;;;4.35;1.73;;;;;;;;;;5074430;28;20514;-39
2022/03/01 03:56:08;;;;;;;3.15;1.83;;;;;;;;;;5074254;28;20360;-39
2022/03/01 03:58:34;;;;;;;2.35;1.50;;;;;;;;;;5074334;28;20361;-39
2022/03/01 04:00:59;;;;;;;2.35;1.52;;;;;;;;;;5073937;28;20055;-39
2022/03/01 04:03:25;;;;;;;3.03;1.48;;;;;;;;;;5073994;28;20048;-39
2022/03/01 04:05:50;;;;;;;3.75;2.03;;;;;;;;;;5073925;28;20037;-39
2022/03/01 04:08:16;;;;;;;2.03;1.02;;;;;;;;;;5073848;28;20024;-39
2022/03/01 04:10:42;;;;;;;1.60;1.30;;;;;;;;;;5073744;28;20068;-39
2022/03/01 04:13:08;;;;;;;2.65;1.35;;;;;;;;;;5073985;28;20060;-39
2022/03/01 04:15:33;;;;;;;3.58;1.77;;;;;;;;;;5074045;28;20471;-39
2022/03/01 04:17:59;;;;;;;5.65;1.85;;;;;;;;;;5073850;28;20081;-39
2022/03/01 04:20:25;;;;;;;2.60;2.00;;;;;;;;;;5073752;28;20457;-40
2022/03/01 04:22:50;;;;;;;2.22;1.55;;;;;;;;;;5073662;28;20020;-39
2022/03/01 04:25:16;;;;;;;2.28;1.30;;;;;;;;;;5073702;28;20374;-39
2022/03/01 04:27:41;;;;;;;2.13;1.63;;;;;;;;;;5073709;28;20092;-39
2022/03/01 04:30:07;;;;;;;3.05;1.73;;;;;;;;;;5073297;28;20035;-39
2022/03/01 04:32:34;;;;;;;4.10;1.75;;;;;;;;;;5073289;28;20059;-39
2022/03/01 04:35:00;;;;;;;2.65;1.80;;;;;;;;;;5073498;28;20029;-39
2022/03/01 04:37:26;;;;;;;1.38;1.27;;;;;;;;;;5073401;28;20029;-39
2022/03/01 04:39:51;;;;;;;2.63;1.45;;;;;;;;;;5073414;28;20028;-39
2022/03/01 04:42:17;;;;;;;2.58;1.40;;;;;;;;;;5073147;28;20025;-39
2022/03/01 04:44:43;;;;;;;3.20;1.92;;;;;;;;;;5073178;28;20071;-39
2022/03/01 04:47:09;;;;;;;4.05;1.98;;;;;;;;;;5073089;28;20027;-39
2022/03/01 04:49:34;;;;;;;3.67;2.45;;;;;;;;;;5073235;28;20032;-39
2022/03/01 04:51:59;;;;;;;4.55;2.00;;;;;;;;;;5073095;28;20115;-39
2022/03/01 04:54:25;;;;;;;4.30;1.67;;;;;;;;;;5073257;28;20060;-39
2022/03/01 04:56:50;;;;;;;4.47;2.25;;;;;;;;;;5073078;28;20376;-39
2022/03/01 04:59:16;;;;;;;2.28;1.88;;;;;;;;;;5073114;28;20028;-39
2022/03/01 05:01:41;;;;;;;2.30;1.90;;;;;;;;;;5072759;28;20028;-39
2022/03/01 05:04:07;;;;;;;6.88;2.90;;;;;;;;;;5072701;28;20035;-39
2022/03/01 05:06:33;;;;;;;4.05;1.33;;;;;;;;;;5072712;28;20028;-39
2022/03/01 05:08:58;;;;;;;6.65;2.03;;;;;;;;;;5072543;28;20028;-39
2022/03/01 05:11:24;;;;;;;1.58;1.17;;;;;;;;;;5072861;28;20036;-39
2022/03/01 05:13:49;;;;;;;2.85;1.67;;;;;;;;;;5072811;28;20036;-39
2022/03/01 05:16:15;;;;;;;3.80;2.10;;;;;;;;;;5072596;28;20105;-39
2022/03/01 05:18:40;;;;;;;1.70;1.33;;;;;;;;;;5072766;28;20067;-39
2022/03/01 05:21:05;;;;;;;5.32;1.95;;;;;;;;;;5072417;28;20035;-39
2022/03/01 05:23:31;;;;;;;2.80;1.80;;;;;;;;;;5072413;28;20383;-39
2022/03/01 05:25:57;;;;;;;1.23;0.98;;;;;;;;;;5072504;28;20364;-38
2022/03/01 05:28:22;;;;;;;1.73;1.30;;;;;;;;;;5072371;28;20032;-39
2022/03/01 05:30:48;;;;;;;1.42;1.33;;;;;;;;;;5072284;28;20028;-39
2022/03/01 05:33:13;;;;;;;2.05;1.65;;;;;;;;;;5072025;28;20041;-40
2022/03/01 05:35:40;;;;;;;2.92;2.08;;;;;;;;;;5071178;28;20202;-39
2022/03/01 05:38:09;;;;;;;1.58;1.20;;;;;;;;;;5072126;28;20075;-39
2022/03/01 05:40:35;;;;;;;3.25;1.70;;;;;;;;;;5072138;28;20029;-38
2022/03/01 05:43:01;;;;;;;4.88;1.20;;;;;;;;;;5071994;28;20059;-39
2022/03/01 05:45:26;;;;;;;3.60;1.80;;;;;;;;;;5072259;28;20390;-39
2022/03/01 05:47:52;;;;;;;1.30;1.20;;;;;;;;;;5072293;28;20600;-39
2022/03/01 05:50:18;;;;;;;2.90;1.58;;;;;;;;;;5071735;28;20027;-39
2022/03/01 05:52:44;;;;;;;3.15;1.55;;;;;;;;;;5071905;28;20065;-38
2022/03/01 05:55:10;;;;;;;3.83;1.58;;;;;;;;;;5072114;28;20452;-38
2022/03/01 05:57:36;;;;;;;2.03;1.30;;;;;;;;;;5070515;28;20614;-39
2022/03/01 06:00:06;;;;;;;5.97;1.70;;;;;;;;;;5071777;28;20379;-38
2022/03/01 06:02:37;;;;;;;2.50;1.95;;;;;;;;;;5071735;28;20365;-39
2022/03/01 06:05:03;;;;;;;1.63;1.52;;;;;;;;;;5071591;28;20032;-39
2022/03/01 06:07:28;;;;;;;1.05;0.93;;;;;;;;;;5071692;28;20016;-39
2022/03/01 06:09:54;;;;;;;2.03;1.60;;;;;;;;;;5071643;28;20029;-39
2022/03/01 06:12:19;;;;;;;4.00;1.77;;;;;;;;;;5071539;28;20028;-39
2022/03/01 06:14:45;;;;;;;2.42;1.83;;;;;;;;;;5071119;28;20387;-39
2022/03/01 06:17:10;;;;;;;2.72;1.85;;;;;;;;;;5070548;28;20020;-39
2022/03/01 06:19:36;;;;;;;2.42;2.03;;;;;;;;;;5071584;28;20530;-39
2022/03/01 06:22:02;;;;;;;2.10;1.48;;;;;;;;;;5071415;28;20029;-39
2022/03/01 06:24:27;;;;;;;3.28;1.75;;;;;;;;;;5071699;28;20033;-39
2022/03/01 06:26:53;;;;;;;2.72;1.77;;;;;;;;;;5071261;28;20036;-39
2022/03/01 06:29:18;;;;;;;2.08;1.88;;;;;;;;;;5071405;28;20524;-39
2022/03/01 06:31:44;;;;;;;2.67;1.60;;;;;;;;;;5071322;28;20554;-39
2022/03/01 06:34:09;;;;;;;2.95;1.73;;;;;;;;;;5071253;28;20471;-39
2022/03/01 06:36:35;;;;;;;1.98;1.77;;;;;;;;;;5071409;28;20115;-39
2022/03/01 06:39:00;;;;;;;4.53;1.70;;;;;;;;;;5071148;28;20497;-39
2022/03/01 06:41:26;;;;;;;5.97;2.08;;;;;;;;;;5071579;28;20060;-39
2022/03/01 06:43:51;;;;;;;3.83;1.70;;;;;;;;;;5071195;28;20376;-38
2022/03/01 06:46:16;;;;;;;2.80;2.22;;;;;;;;;;5071021;28;20059;-39
2022/03/01 06:48:42;;;;;;;3.67;2.35;;;;;;;;;;5071188;28;20025;-39
2022/03/01 06:51:08;;;;;;;4.22;1.85;;;;;;;;;;5071406;28;20379;-39
2022/03/01 06:53:35;;;;;;;4.85;1.83;;;;;;;;;;5070999;28;20033;-38
2022/03/01 06:56:00;;;;;;;5.15;2.80;;;;;;;;;;5071037;28;20032;-39
2022/03/01 06:58:26;;;;;;;8.55;3.28;;;;;;;;;;5071078;28;20033;-38
2022/03/01 07:00:52;;;;;;;3.50;2.08;;;;;;;;;;5071117;28;20158;-39
2022/03/01 07:03:17;;;;;;;6.25;1.77;;;;;;;;;;5071061;28;20032;-38
2022/03/01 07:05:44;;;;;;;1.50;1.33;;;;;;;;;;5070942;28;20107;-39
2022/03/01 07:08:10;;;;;;;2.90;1.95;;;;;;;;;;5071154;28;20025;-38
2022/03/01 07:10:36;;;;;;;1.52;1.10;;;;;;;;;;5071188;28;20024;-38
2022/03/01 07:13:01;;;;;;;3.78;1.58;;;;;;;;;;5069740;28;20036;-39
2022/03/01 07:15:27;;;;;;;2.88;1.75;;;;;;;;;;5069592;28;20096;-39
2022/03/01 07:17:52;;;;;;;4.68;2.50;;;;;;;;;;5070881;28;20036;-38
2022/03/01 07:20:17;;;;;;;2.90;1.48;;;;;;;;;;5071124;28;20018;-39
2022/03/01 07:22:43;;;;;;;1.00;0.98;;;;;;;;;;5070942;28;20133;-39
2022/03/01 07:25:09;;;;;;;3.15;1.63;;;;;;;;;;5071465;28;20138;-39
2022/03/01 07:27:35;;;;;;;1.35;1.20;;;;;;;;;;5074719;28;20120;-39
2022/03/01 07:30:00;;;;;;;2.85;2.03;;;;;;;;;;5074493;28;20108;-38
2022/03/01 07:32:26;;;;;;;2.65;1.55;;;;;;;;;;5074506;28;20053;-38
2022/03/01 07:34:51;;;;;;;3.05;1.60;;;;;;;;;;5074652;28;20025;-38
2022/03/01 07:37:17;;;;;;;1.45;1.10;;;;;;;;;;5073094;28;20037;-39
2022/03/01 07:39:43;;;;;;;3.70;1.63;;;;;;;;;;5074483;28;20020;-38
2022/03/01 07:42:08;;;;;;;4.32;1.90;;;;;;;;;;5074232;28;20048;-38
2022/03/01 07:44:37;;;;;;;2.65;1.58;;;;;;;;;;5073100;28;20048;-38
2022/03/01 07:47:04;;;;;;;1.77;1.33;;;;;;;;;;5074419;28;20032;-39
2022/03/01 07:49:30;;;;;;;3.03;1.83;;;;;;;;;;5074264;28;20410;-39
2022/03/01 07:51:55;;;;;;;2.75;2.03;;;;;;;;;;5074139;28;20115;-39
2022/03/01 07:54:21;;;;;;;2.60;1.80;;;;;;;;;;5074040;28;20387;-39
2022/03/01 07:56:46;;;;;;;3.42;1.50;;;;;;;;;;5074135;28;20033;-39
2022/03/01 07:59:12;;;;;;;5.50;1.95;;;;;;;;;;5074058;28;20107;-39
2022/03/01 08:01:37;;;;;;;4.30;2.35;;;;;;;;;;5074077;28;20067;-39
2022/03/01 08:04:03;;;;;;;2.15;1.42;;;;;;;;;;5073897;28;20024;-39
2022/03/01 08:06:29;;;;;;;2.85;1.60;;;;;;;;;;5072734;28;20032;-39
2022/03/01 08:08:54;;;;;;;2.10;1.50;;;;;;;;;;5074242;28;20158;-39
2022/03/01 08:11:20;;;;;;;2.80;1.85;;;;;;;;;;5073713;28;20379;-39
2022/03/01 08:13:45;;;;;;;1.67;1.58;;;;;;;;;;5073871;28;20008;-42
2022/03/01 08:16:11;;;;;;;1.75;1.38;;;;;;;;;;5074028;28;20036;-39
2022/03/01 08:18:36;;;;;;;1.95;1.02;;;;;;;;;;5073760;28;20582;-39
2022/03/01 08:21:02;;;;;;;3.33;1.80;;;;;;;;;;5073849;28;20028;-39
2022/03/01 08:23:27;;;;;;;2.15;1.63;;;;;;;;;;5073925;28;20405;-39
2022/03/01 08:25:53;;;;;;;2.17;1.48;;;;;;;;;;5073853;28;20032;-39
2022/03/01 08:28:18;;;;;;;5.40;1.73;;;;;;;;;;5073752;28;20382;-39
2022/03/01 08:30:46;;;;;;;5.93;1.98;;;;;;;;;;5073533;28;20041;-39
2022/03/01 08:33:11;;;;;;;4.18;1.75;;;;;;;;;;5073097;28;20524;-39
2022/03/01 08:35:37;;;;;;;2.05;1.73;;;;;;;;;;5073430;28;20086;-39
2022/03/01 08:38:05;;;;;;;3.55;1.38;;;;;;;;;;5073199;28;20024;-39
2022/03/01 08:40:37;;;;;;;3.97;1.77;;;;;;;;;;5073614;28;20399;-39
2022/03/01 08:43:03;;;;;;;2.30;1.87;;;;;;;;;;5073200;28;20040;-39
2022/03/01 08:45:29;;;;;;;1.73;1.60;;;;;;;;;;5073249;28;20265;-39
2022/03/01 08:47:54;;;;;;;3.08;2.10;;;;;;;;;;5071958;28;20056;-39
2022/03/01 08:50:20;;;;;;;2.03;1.48;;;;;;;;;;5073050;28;20035;-39
2022/03/01 08:52:45;;;;;;;3.28;1.55;;;;;;;;;;5073410;28;20037;-39
2022/03/01 08:55:12;;;;;;;2.50;1.48;;;;;;;;;;5073204;28;20023;-39
2022/03/01 08:57:38;;;;;;;1.77;1.35;;;;;;;;;;5072074;28;20028;-39
2022/03/01 09:00:04;;;;;;;3.55;2.15;;;;;;;;;;5072897;28;20024;-39
2022/03/01 09:02:30;;;;;;;2.08;1.20;;;;;;;;;;5073150;28;20025;-39
2022/03/01 09:04:55;;;;;;;1.85;1.40;;;;;;;;;;5073105;28;20490;-39
2022/03/01 09:07:21;;;;;;;4.05;1.33;;;;;;;;;;5072775;28;20036;-39
2022/03/01 09:09:46;;;;;;;2.53;1.30;;;;;;;;;;5072642;28;20190;-39
2022/03/01 09:12:12;;;;;;;1.75;1.58;;;;;;;;;;5072859;28;20045;-39
2022/03/01 09:14:37;;;;;;;2.40;1.15;;;;;;;;;;5072913;28;20024;-39
2022/03/01 09:17:03;;;;;;;3.15;1.92;;;;;;;;;;5072522;28;20517;-40
2022/03/01 09:19:28;;;;;;;1.38;1.27;;;;;;;;;;5072636;28;20013;-39
2022/03/01 09:21:55;;;;;;;2.38;1.60;;;;;;;;;;5072758;28;20127;-39
2022/03/01 09:24:20;;;;;;;1.77;1.23;;;;;;;;;;5072326;28;20483;-39
2022/03/01 09:26:46;;;;;;;1.52;1.25;;;;;;;;;;5072551;28;20028;-39
2022/03/01 09:29:11;;;;;;;1.30;1.20;;;;;;;;;;5072381;28;20016;-39
2022/03/01 09:31:37;;;;;;;2.63;1.30;;;;;;;;;;5072086;28;20119;-39
2022/03/01 09:34:03;;;;;;;2.08;1.20;;;;;;;;;;5072428;28;20040;-39
2022/03/01 09:36:28;;;;;;;2.55;1.63;;;;;;;;;;5072502;28;20040;-39
2022/03/01 09:38:54;;;;;;;2.47;0.90;;;;;;;;;;5072247;28;20027;-39
2022/03/01 09:41:20;;;;;;;3.28;1.50;;;;;;;;;;5072087;28;20024;-39
2022/03/01 09:43:45;;;;;;;3.60;1.75;;;;;;;;;;5072296;28;20428;-39
2022/03/01 09:46:11;;;;;;;2.88;1.75;;;;;;;;;;5072209;28;20064;-43
2022/03/01 09:48:37;;;;;;;2.72;1.17;;;;;;;;;;5071609;28;20020;-39
2022/03/01 09:51:04;;;;;;;6.32;2.08;;;;;;;;;;5071782;28;20040;-39
2022/03/01 09:53:30;;;;;;;1.10;1.00;;;;;;;;;;5071841;28;20542;-39
2022/03/01 09:55:56;;;;;;;3.03;2.10;;;;;;;;;;5072136;28;20131;-39
2022/03/01 09:58:22;;;;;;;2.88;1.52;;;;;;;;;;5071710;28;20024;-39
2022/03/01 10:00:48;;;;;;;2.40;1.70;;;;;;;;;;5071886;28;20506;-39
2022/03/01 10:03:19;;;;;;;9.07;1.90;;;;;;;;;;5070257;28;20024;-39
2022/03/01 10:05:45;;;;;;;2.35;1.85;;;;;;;;;;5071662;28;20037;-39
2022/03/01 10:08:15;;;;;;;2.78;1.50;;;;;;;;;;5071663;28;20028;-39
2022/03/01 10:10:52;;;;;;;4.25;2.00;;;;;;;;;;5071845;28;20032;-39
2022/03/01 10:13:22;;;;;;;2.38;1.58;;;;;;;;;;5071508;28;20040;-39
2022/03/01 10:15:49;;;;;;;3.05;1.27;;;;;;;;;;5071843;28;20021;-39
2022/03/01 10:18:15;;;;;;;4.28;1.55;;;;;;;;;;5071550;28;20035;-39
2022/03/01 10:20:44;;;;;;;4.25;1.83;;;;;;;;;;5071766;28;20462;-39
2022/03/01 10:23:10;;;;;;;1.55;1.45;;;;;;;;;;5071429;28;20036;-39
2022/03/01 10:25:36;;;;;;;3.05;1.98;;;;;;;;;;5070210;28;20036;-39
2022/03/01 10:28:02;;;;;;;3.20;1.60;;;;;;;;;;5071276;28;20025;-39
2022/03/01 10:30:29;;;;;;;1.92;1.38;;;;;;;;;;5071372;28;20107;-39
2022/03/01 10:33:05;;;;;;;2.38;1.48;;;;;;;;;;5071297;28;20052;-39
2022/03/01 10:35:30;;;;;;;2.40;1.33;;;;;;;;;;5071319;28;20060;-39
2022/03/01 10:37:56;;;;;;;3.33;1.70;;;;;;;;;;5071395;28;20051;-39
2022/03/01 10:40:22;;;;;;;2.47;1.55;;;;;;;;;;5071173;28;20040;-39
2022/03/01 10:42:59;;;;;;;4.80;2.17;;;;;;;;;;5071301;28;20021;-39
2022/03/01 10:45:31;;;;;;;3.17;1.38;;;;;;;;;;5071153;28;20021;-39
2022/03/01 10:47:57;;;;;;;3.60;1.75;;;;;;;;;;5071462;28;20378;-39
2022/03/01 10:50:23;;;;;;;2.72;1.15;;;;;;;;;;5069742;28;20021;-39
2022/03/01 10:52:49;;;;;;;2.80;1.98;;;;;;;;;;5071207;28;20036;-39
2022/03/01 10:55:29;;;;;;;2.58;1.58;;;;;;;;;;5071008;28;20379;-39
2022/03/01 10:58:12;;;;;;;2.13;1.88;;;;;;;;;;5071141;28;20463;-39
2022/03/01 11:00:38;;;;;;;2.05;1.23;;;;;;;;;;5074379;28;20425;-39
2022/03/01 11:03:07;;;;;;;2.72;1.40;;;;;;;;;;5075260;28;20036;-39
2022/03/01 11:05:33;;;;;;;3.22;1.58;;;;;;;;;;5075425;28;20118;-39
2022/03/01 11:08:08;;;;;;;4.10;1.55;;;;;;;;;;5075042;28;20020;-39
2022/03/01 11:10:36;;;;;;;3.67;1.35;;;;;;;;;;5074848;28;20039;-39
2022/03/01 11:13:01;;;;;;;3.08;2.10;;;;;;;;;;5075188;28;20107;-39
2022/03/01 11:15:46;;;;;;;3.50;1.75;;;;;;;;;;5075022;28;20096;-39
2022/03/01 11:18:30;;;;;;;1.90;1.52;;;;;;;;;;5074636;28;20515;-39
2022/03/01 11:20:56;;;;;;;2.22;1.45;;;;;;;;;;5075034;28;20024;-39
2022/03/01 11:23:23;;;;;;;3.13;1.40;;;;;;;;;;5074956;28;20029;-39
2022/03/01 11:25:49;;;;;;;2.13;1.50;;;;;;;;;;5074919;28;20025;-39
2022/03/01 11:28:16;;;;;;;2.80;1.50;;;;;;;;;;5074648;28;20047;-39
2022/03/01 11:30:51;;;;;;;1.40;1.27;;;;;;;;;;5074597;28;20044;-39
2022/03/01 11:33:29;;;;;;;4.22;1.52;;;;;;;;;;5074278;28;20109;-39
2022/03/01 11:35:56;;;;;;;3.45;1.90;;;;;;;;;;5074863;28;20060;-39
2022/03/01 11:38:26;;;;;;;1.98;1.30;;;;;;;;;;5074453;28;20052;-39
2022/03/01 11:40:51;;;;;;;2.83;1.30;;;;;;;;;;5074756;28;20421;-39
2022/03/01 11:43:23;;;;;;;2.28;1.30;;;;;;;;;;5074168;28;20112;-39
2022/03/01 11:45:53;;;;;;;3.60;1.83;;;;;;;;;;5074594;28;20390;-39
2022/03/01 11:48:23;;;;;;;3.22;1.40;;;;;;;;;;5074295;28;20093;-39
2022/03/01 11:50:54;;;;;;;3.92;1.77;;;;;;;;;;5074241;28;20028;-39
2022/03/01 11:53:20;;;;;;;3.10;1.70;;;;;;;;;;5074306;28;20043;-39
2022/03/01 11:55:47;;;;;;;3.55;2.05;;;;;;;;;;5074534;28;20370;-39
2022/03/01 11:58:13;;;;;;;3.03;1.85;;;;;;;;;;5074163;28;20032;-39
2022/03/01 12:00:39;;;;;;;3.70;2.00;;;;;;;;;;5074307;28;20028;-39
2022/03/01 12:03:17;;;;;;;4.40;1.95;;;;;;;;;;5074269;28;20513;-39
2022/03/01 12:05:46;;;;;;;1.85;1.45;;;;;;;;;;5073957;28;20025;-39
2022/03/01 12:08:12;;;;;;;5.65;2.38;;;;;;;;;;5073921;28;20055;-39
2022/03/01 12:10:38;;;;;;;4.28;1.70;;;;;;;;;;5073366;28;20474;-39
2022/03/01 12:13:05;;;;;;;1.95;1.52;;;;;;;;;;5072157;28;20102;-39
2022/03/01 12:15:33;;;;;;;2.95;1.77;;;;;;;;;;5073936;28;20017;-39
2022/03/01 12:18:09;;;;;;;4.40;2.60;;;;;;;;;;5074059;28;20118;-39
2022/03/01 12:20:38;;;;;;;2.53;1.50;;;;;;;;;;5073820;28;20550;-39
2022/03/01 12:23:03;;;;;;;2.90;1.92;;;;;;;;;;5073738;28;20093;-39
2022/03/01 12:25:33;;;;;;;5.10;1.73;;;;;;;;;;5074014;28;20454;-39
2022/03/01 12:28:01;;;;;;;1.40;1.20;;;;;;;;;;5073491;28;20043;-39
2022/03/01 12:30:26;;;;;;;5.07;2.10;;;;;;;;;;5073369;28;20024;-39
2022/03/01 12:32:56;;;;;;;5.10;2.22;;;;;;;;;;5073489;28;20055;-39
2022/03/01 12:35:23;;;;;;;2.22;1.27;;;;;;;;;;5073325;28;20471;-39
2022/03/01 12:37:48;;;;;;;3.03;1.73;;;;;;;;;;5073374;28;20024;-39
2022/03/01 12:40:14;;;;;;;3.10;1.58;;;;;;;;;;5073301;28;20102;-39
2022/03/01 12:42:39;;;;;;;2.75;1.67;;;;;;;;;;5073639;28;20032;-39
2022/03/01 12:45:05;;;;;;;2.55;1.42;;;;;;;;;;5073418;28;20055;-39
2022/03/01 12:47:30;;;;;;;5.10;1.63;;;;;;;;;;5073321;28;20025;-39
2022/03/01 12:49:56;;;;;;;1.33;1.23;;;;;;;;;;5073408;28;20395;-39
2022/03/01 12:52:22;;;;;;;3.15;1.55;;;;;;;;;;5072999;28;20483;-39
2022/03/01 12:54:48;;;;;;;3.03;1.30;;;;;;;;;;5073327;28;20085;-39
2022/03/01 12:57:14;;;;;;;4.50;1.65;;;;;;;;;;5072942;28;20463;-39
2022/03/01 12:59:40;;;;;;;1.70;1.60;;;;;;;;;;5073246;28;20024;-39
2022/03/01 13:02:07;;;;;;;3.70;1.95;;;;;;;;;;5072971;28;20099;-39
2022/03/01 13:04:34;;;;;;;2.65;2.10;;;;;;;;;;5072733;28;20020;-44
2022/03/01 13:07:00;;;;;;;2.88;1.92;;;;;;;;;;5072947;28;20016;-39
2022/03/01 13:09:26;;;;;;;2.63;1.83;;;;;;;;;;5072887;28;20031;-39
2022/03/01 13:11:51;;;;;;;1.75;1.45;;;;;;;;;;5072619;28;20032;-39
2022/03/01 13:14:17;;;;;;;2.85;1.52;;;;;;;;;;5072670;28;20143;-39
2022/03/01 13:16:44;;;;;;;2.70;1.63;;;;;;;;;;5072673;28;20078;-39
2022/03/01 13:19:11;;;;;;;4.50;1.95;;;;;;;;;;5072436;28;20467;-39
2022/03/01 13:21:41;;;;;;;2.85;1.60;;;;;;;;;;5072591;28;20475;-39
2022/03/01 13:24:11;;;;;;;4.70;2.03;;;;;;;;;;5071283;28;20039;-39
2022/03/01 13:26:37;;;;;;;2.72;1.90;;;;;;;;;;5072491;28;20065;-39
2022/03/01 13:29:08;;;;;;;3.70;1.73;;;;;;;;;;5072384;28;20040;-39
2022/03/01 13:31:33;;;;;;;3.47;1.90;;;;;;;;;;5071985;28;20040;-39
2022/03/01 13:33:59;;;;;;;3.25;1.95;;;;;;;;;;5072579;28;20673;-39
2022/03/01 13:36:26;;;;;;;2.97;1.73;;;;;;;;;;5072512;28;20375;-39
2022/03/01 13:38:58;;;;;;;1.85;1.70;;;;;;;;;;5072242;28;20017;-39
2022/03/01 13:41:25;;;;;;;2.38;1.73;;;;;;;;;;5072161;28;20127;-39
2022/03/01 13:43:51;;;;;;;2.60;1.88;;;;;;;;;;5070862;28;20024;-39
2022/03/01 13:46:16;;;;;;;2.35;1.83;;;;;;;;;;5071952;28;20029;-40
2022/03/01 13:48:43;;;;;;;3.10;2.05;;;;;;;;;;5072267;28;20055;-39
2022/03/01 13:51:08;;;;;;;2.83;1.80;;;;;;;;;;5072159;28;20040;-39
2022/03/01 13:53:34;;;;;;;3.10;1.90;;;;;;;;;;5071778;28;20754;-39
2022/03/01 13:56:00;;;;;;;2.42;1.55;;;;;;;;;;5071928;28;20127;-39
2022/03/01 13:58:27;;;;;;;2.95;1.58;;;;;;;;;;5071740;28;20107;-39
2022/03/01 14:00:53;;;;;;;3.58;1.70;;;;;;;;;;5071741;28;20032;-39
2022/03/01 14:03:25;;;;;;;3.75;1.90;;;;;;;;;;5071844;28;20021;-39
2022/03/01 14:05:58;;;;;;;2.35;1.85;;;;;;;;;;5071899;28;20064;-39
2022/03/01 14:08:25;;;;;;;2.05;1.73;;;;;;;;;;5071884;28;20387;-39
2022/03/01 14:10:52;;;;;;;2.25;1.77;;;;;;;;;;5071529;28;20052;-39
2022/03/01 14:13:27;;;;;;;4.30;2.22;;;;;;;;;;5071515;28;20027;-39
2022/03/01 14:16:02;;;;;;;2.50;1.92;;;;;;;;;;5071537;28;20031;-39
2022/03/01 14:18:36;;;;;;;10.63;2.20;;;;;;;;;;5071566;28;20103;-39
2022/03/01 14:21:02;;;;;;;2.67;1.83;;;;;;;;;;5071513;28;20043;-39
2022/03/01 14:23:28;;;;;;;3.38;1.88;;;;;;;;;;5071365;28;20103;-39
2022/03/01 14:25:53;;;;;;;4.45;2.65;;;;;;;;;;5071431;28;20457;-40
2022/03/01 14:28:19;;;;;;;5.95;2.22;;;;;;;;;;5071612;28;20024;-39
2022/03/01 14:30:44;;;;;;;4.97;1.85;;;;;;;;;;5071377;28;20024;-39
2022/03/01 14:33:10;;;;;;;3.83;2.13;;;;;;;;;;5071184;28;20148;-39
2022/03/01 14:35:36;;;;;;;2.58;1.95;;;;;;;;;;5071002;28;20475;-39
2022/03/01 14:38:03;;;;;;;4.28;1.88;;;;;;;;;;5071630;28;20095;-39